Inverness, FL

7:23 AM EDT on September 30, 2014 (GMT -0400)
Hernando County | Change Station
CLOSE
Current Station
Airport
Location: Brooksville,
Elevation: 75 ft
Nearby Weather Stations

Elev 75 ft 28.47 °N, 82.45 °W | Updated 9 minutes ago

Partly Cloudy
Partly Cloudy
74 °F
Feels Like 74 °F
N
0
Wind Variable Wind from North

Today
High -- | Low -- °F
--% Chance of Precip.
Yesterday
High -- | Low -- °F
Precip. -- in
7:21 AM 7:16 PM
Waxing Crescent, 36% visible
Pressure 29.85 in
Visibility 0.5 miles
Clouds
Dew Point 73 °F
Humidity 97%
Rainfall 0.02 in
Snow Depth Not available.
UV Not available.
Pollen 5.00 out of 12
Air Quality Not available.
Flu Activity Not available.
SPECI KBKV 301114Z AUTO 00000KT 1/2SM FG VV002 23/23 A2985 RMK AO2 T02330228

More Conditions Fewer Conditions

Pressure 29.85 in
Visibility 0.5 miles
Clouds
Dew Point 73 °F
Humidity 97%
Rainfall 0.02 in
Snow Depth Not available.
UV Not available.
Pollen 5.00 out of 12
Air Quality Not available.
Flu Activity Not available.
SPECI KBKV 301114Z AUTO 00000KT 1/2SM FG VV002 23/23 A2985 RMK AO2 T02330228

More Conditions Fewer Conditions

10-Day Weather Forecast

Almanac

Astronomy

Sep. 30, 2014 Rise Set
Actual Time 7:21 AM EDT 7:16 PM EDT
Civil Twilight 6:58 AM EDT 7:39 PM EDT
Nautical Twilight 6:30 AM EDT 8:07 PM EDT
Astronomical Twilight 6:03 AM EDT 8:34 PM EDT
Moon 1:07 PM EDT No Moon Set
Length of Visible Light 12h 41m
Length of Day
11h 54m
Tomorrow will be 1m 42s shorter.
Waxing Crescent, 36% of the Moon is Illuminated
Today
Waxing Crescent
Oct 1
First Quarter
Oct 8
Full
Oct 15
Last Quarter
Oct 23
New

Today's Extremes

State Highs State Lows

Community

WunderPhotos

Upload Photos

1,757,617 photos uploaded!

WunderBlogs® & News

Nearby

Snow Depth

Station Depth Elevation
No new snow has been reported.

Earthquake Activity

City Distance Mag. Time & Date
No recent earthquake activity has been reported nearby.
Minimum magnitude displayed is 2.5.

Coastal Water Temperatures

Place Temperature
No Stations Reporting

Nearby Weather Stations